Terminal Aerodrome Forecast
Issued by NWS

Home | Current Version | Previous Version | Text Only | Print | Product List | Glossary On
Versions: 1 2 3 4 5 6 7 8 9 10 11 12 13 14
000
FTUS44 KEPZ 162300
TAFLRU
TAF
KLRU 162327Z 1700/1724 11009KT P6SM VCSH SCT025 BKN045
     FM170300 08007KT 5SM -SHRA SCT015 BKN025 OVC050
      TEMPO 1704/1708 2SM +SHRA BKN015
     FM171000 08007KT P6SM VCSH SCT010 BKN020 OVC040
     FM172100 09008KT 5SM -SHRA SCT015 BKN030=

USA.gov is the U.S. government's official web portal to all federal, state and local government web resources and services.